Time;durP1;ratioP1;P1;durP2;ratioP2;P2;SDS_P1;SDS_P2;PMS_P1;PMS_P2;Temp;Humidity;BMP_temperature;BMP_pressure;BME280_temperature;BME280_humidity;BME280_pressure;Samples;Min_cycle;Max_cycle;Signal;HPM_P1;HPM_P2
2023/05/18 00:00:35;;;;;;;;;;;6.30;99.90;;;;;;5038925;28;19988;-87
2023/05/18 00:03:01;;;;;;;;;;;6.30;99.90;;;;;;5030517;28;20063;-87
2023/05/18 00:05:32;;;;;;;;;;;6.30;99.90;;;;;;5016750;28;19909;-87
2023/05/18 00:08:00;;;;;;;;;;;6.30;99.90;;;;;;5032772;28;20360;-86
2023/05/18 00:10:25;;;;;;;;;;;6.30;99.90;;;;;;5002074;28;19940;-87
2023/05/18 00:12:51;;;;;;;;;;;6.30;99.90;;;;;;5032940;28;19913;-87
2023/05/18 00:15:16;;;;;;;;;;;6.20;99.90;;;;;;5034992;28;19981;-87
2023/05/18 00:17:42;;;;;;;;;;;6.30;99.90;;;;;;5019215;28;19913;-87
2023/05/18 00:20:08;;;;;;;;;;;6.20;99.90;;;;;;5028918;28;20356;-87
2023/05/18 00:22:34;;;;;;;;;;;6.20;99.90;;;;;;5041671;28;19959;-87
2023/05/18 00:24:59;;;;;;;;;;;6.20;99.90;;;;;;5032447;28;19917;-87
2023/05/18 00:27:25;;;;;;;;;;;6.20;99.90;;;;;;5029810;28;19955;-86
2023/05/18 00:29:52;;;;;;;;;;;6.20;99.90;;;;;;5035321;28;19917;-87
2023/05/18 00:32:17;;;;;;;;;;;6.30;99.90;;;;;;5018456;28;20368;-88
2023/05/18 00:35:05;;;;;;;;;;;6.10;99.90;;;;;;5012134;28;19948;-87
2023/05/18 00:37:30;;;;;;;;;;;6.10;99.90;;;;;;5021817;28;20615;-87
2023/05/18 00:40:14;;;;;;;;;;;6.20;99.90;;;;;;5012944;28;19906;-87
2023/05/18 00:42:40;;;;;;;;;;;6.10;99.90;;;;;;5025474;28;19916;-87
2023/05/18 00:45:08;;;;;;;;;;;6.10;99.90;;;;;;5032468;28;19913;-87
2023/05/18 00:47:34;;;;;;;;;;;6.00;99.90;;;;;;5027827;28;19997;-87
2023/05/18 00:50:00;;;;;;;;;;;6.00;99.90;;;;;;5017032;28;19951;-87
2023/05/18 00:52:26;;;;;;;;;;;6.00;99.90;;;;;;5032232;28;20503;-88
2023/05/18 00:54:57;;;;;;;;;;;6.00;99.90;;;;;;5032986;28;20288;-87
2023/05/18 00:57:22;;;;;;;;;;;6.00;99.90;;;;;;5036601;28;19967;-87
2023/05/18 00:59:48;;;;;;;;;;;6.00;99.90;;;;;;5023140;28;19912;-86
2023/05/18 01:02:35;;;;;;;;;;;6.00;99.90;;;;;;5036178;28;19916;-87
2023/05/18 01:05:02;;;;;;;;;;;6.00;99.90;;;;;;5023941;28;20004;-87
2023/05/18 01:07:28;;;;;;;;;;;5.90;99.90;;;;;;5028038;28;19931;-87
2023/05/18 01:09:54;;;;;;;;;;;5.90;99.90;;;;;;5039678;28;19910;-87
2023/05/18 01:12:22;;;;;;;;;;;5.80;99.90;;;;;;5020447;28;20013;-87
2023/05/18 01:14:51;;;;;;;;;;;5.80;99.90;;;;;;5047700;28;19910;-86
2023/05/18 01:17:20;;;;;;;;;;;5.70;99.90;;;;;;5039512;28;19920;-87
2023/05/18 01:20:06;;;;;;;;;;;5.60;99.90;;;;;;5047269;28;19956;-87
2023/05/18 01:22:55;;;;;;;;;;;5.60;99.90;;;;;;5032332;28;19913;-87
2023/05/18 01:25:23;;;;;;;;;;;5.60;99.90;;;;;;5016459;28;19905;-86
2023/05/18 01:27:54;;;;;;;;;;;5.60;99.90;;;;;;5015448;28;19913;-88
2023/05/18 01:30:21;;;;;;;;;;;5.50;99.90;;;;;;5022982;28;20336;-87
2023/05/18 01:32:46;;;;;;;;;;;5.50;99.90;;;;;;5019050;28;19944;-87
2023/05/18 01:35:12;;;;;;;;;;;5.40;99.90;;;;;;5023310;28;20008;-86
2023/05/18 01:37:38;;;;;;;;;;;5.40;99.90;;;;;;5049098;28;19941;-87
2023/05/18 01:40:04;;;;;;;;;;;5.40;99.90;;;;;;5024758;28;19909;-87
2023/05/18 01:42:32;;;;;;;;;;;5.30;99.90;;;;;;5039486;28;19931;-85
2023/05/18 01:45:00;;;;;;;;;;;5.30;99.90;;;;;;5027986;28;20285;-87
2023/05/18 01:47:30;;;;;;;;;;;5.20;99.90;;;;;;5033647;28;19913;-87
2023/05/18 01:49:59;;;;;;;;;;;5.20;99.90;;;;;;5027908;28;19914;-87
2023/05/18 01:52:30;;;;;;;;;;;5.20;99.90;;;;;;5026184;28;19995;-86
2023/05/18 01:54:57;;;;;;;;;;;5.20;99.90;;;;;;5002222;28;19916;-87
2023/05/18 01:57:24;;;;;;;;;;;5.10;99.90;;;;;;5042359;28;19913;-87
2023/05/18 01:59:53;;;;;;;;;;;5.00;99.90;;;;;;5033900;28;20360;-86
2023/05/18 02:02:19;;;;;;;;;;;5.00;99.90;;;;;;5034510;28;20292;-87
2023/05/18 02:05:12;;;;;;;;;;;5.00;99.90;;;;;;5032892;28;19909;-87
2023/05/18 02:07:39;;;;;;;;;;;5.00;99.90;;;;;;5013321;28;19967;-87
2023/05/18 02:10:05;;;;;;;;;;;4.90;99.90;;;;;;5028086;28;19992;-87
2023/05/18 02:12:31;;;;;;;;;;;4.90;99.90;;;;;;5024472;28;19916;-87
2023/05/18 02:14:58;;;;;;;;;;;4.90;99.90;;;;;;5040488;28;19897;-87
2023/05/18 02:17:56;;;;;;;;;;;4.90;99.90;;;;;;5039242;28;20291;-87
2023/05/18 02:20:22;;;;;;;;;;;4.90;99.90;;;;;;5009284;28;19914;-87
2023/05/18 02:22:50;;;;;;;;;;;4.90;99.90;;;;;;5040937;28;19967;-87
2023/05/18 02:25:15;;;;;;;;;;;4.90;99.90;;;;;;5027559;28;19913;-88
2023/05/18 02:27:41;;;;;;;;;;;4.80;99.90;;;;;;5034515;28;20365;-87
2023/05/18 02:30:07;;;;;;;;;;;4.80;99.90;;;;;;5023103;28;19916;-88
2023/05/18 02:32:37;;;;;;;;;;;4.80;99.90;;;;;;5032805;28;19956;-88
2023/05/18 02:35:05;;;;;;;;;;;4.80;99.90;;;;;;5029196;28;19919;-87
2023/05/18 02:37:33;;;;;;;;;;;4.80;99.90;;;;;;5043898;28;19921;-87
2023/05/18 02:40:02;;;;;;;;;;;4.70;99.90;;;;;;5025811;28;19916;-87
2023/05/18 02:42:28;;;;;;;;;;;4.70;99.90;;;;;;5048680;28;19909;-87
2023/05/18 02:44:55;;;;;;;;;;;4.60;99.90;;;;;;5005373;28;19910;-87
2023/05/18 02:47:20;;;;;;;;;;;4.50;99.90;;;;;;5033351;28;20665;-88
2023/05/18 02:49:46;;;;;;;;;;;4.60;99.90;;;;;;5014881;28;20000;-88
2023/05/18 02:52:12;;;;;;;;;;;4.60;99.90;;;;;;5026727;28;20004;-88
2023/05/18 02:54:38;;;;;;;;;;;4.60;99.90;;;;;;5023028;28;19960;-86
2023/05/18 02:57:10;;;;;;;;;;;4.50;99.90;;;;;;5015855;28;19998;-87
2023/05/18 02:59:51;;;;;;;;;;;4.50;99.90;;;;;;5020925;28;19964;-87
2023/05/18 03:02:16;;;;;;;;;;;4.50;99.90;;;;;;5041666;28;19909;-87
2023/05/18 03:04:42;;;;;;;;;;;4.40;99.90;;;;;;5030627;28;19909;-88
2023/05/18 03:07:09;;;;;;;;;;;4.50;99.90;;;;;;5034649;28;19909;-87
2023/05/18 03:09:35;;;;;;;;;;;4.40;99.90;;;;;;5025114;28;19908;-88
2023/05/18 03:12:02;;;;;;;;;;;4.40;99.90;;;;;;5010653;28;19909;-88
2023/05/18 03:14:28;;;;;;;;;;;4.40;99.90;;;;;;5029853;28;19976;-87
2023/05/18 03:16:56;;;;;;;;;;;4.50;99.90;;;;;;5022915;28;20043;-88
2023/05/18 03:19:22;;;;;;;;;;;4.40;99.90;;;;;;5035722;28;19916;-88
2023/05/18 03:21:48;;;;;;;;;;;4.40;99.90;;;;;;5030155;28;19913;-88
2023/05/18 03:24:14;;;;;;;;;;;4.50;99.90;;;;;;5019880;28;19909;-88
2023/05/18 03:26:43;;;;;;;;;;;4.40;99.90;;;;;;5030815;28;20007;-88
2023/05/18 03:29:09;;;;;;;;;;;4.40;99.90;;;;;;5032527;28;20436;-86
2023/05/18 03:31:35;;;;;;;;;;;4.30;99.90;;;;;;5018608;28;20353;-87
2023/05/18 03:34:01;;;;;;;;;;;4.30;99.90;;;;;;5037408;28;19909;-87
2023/05/18 03:36:27;;;;;;;;;;;4.40;99.90;;;;;;5030224;28;20331;-87
2023/05/18 03:38:53;;;;;;;;;;;4.30;99.90;;;;;;5031193;28;19948;-88
2023/05/18 03:41:19;;;;;;;;;;;4.30;99.90;;;;;;5032099;28;19967;-86
2023/05/18 03:43:44;;;;;;;;;;;4.30;99.90;;;;;;5016241;28;19897;-87
2023/05/18 03:46:11;;;;;;;;;;;4.30;99.90;;;;;;5010107;28;20322;-86
2023/05/18 03:48:37;;;;;;;;;;;4.40;99.90;;;;;;5016349;28;19988;-86
2023/05/18 03:51:03;;;;;;;;;;;4.30;99.90;;;;;;5021488;28;19952;-86
2023/05/18 03:53:32;;;;;;;;;;;4.40;99.90;;;;;;5030727;28;19905;-86
2023/05/18 03:55:58;;;;;;;;;;;4.40;99.90;;;;;;5022564;28;20526;-86
2023/05/18 03:58:24;;;;;;;;;;;4.40;99.90;;;;;;5005979;28;19909;-86
2023/05/18 04:00:51;;;;;;;;;;;4.50;99.90;;;;;;5025464;28;19996;-86
2023/05/18 04:03:17;;;;;;;;;;;4.50;99.90;;;;;;5033721;28;20006;-86
2023/05/18 04:05:43;;;;;;;;;;;4.50;99.90;;;;;;5021944;28;19909;-86
2023/05/18 04:08:13;;;;;;;;;;;4.50;99.90;;;;;;5037258;28;19964;-86
2023/05/18 04:10:42;;;;;;;;;;;4.50;99.90;;;;;;5044661;28;19971;-86
2023/05/18 04:13:08;;;;;;;;;;;4.50;99.90;;;;;;5030090;28;19915;-85
2023/05/18 04:15:35;;;;;;;;;;;4.40;99.90;;;;;;5036478;28;19951;-85
2023/05/18 04:18:01;;;;;;;;;;;4.40;99.90;;;;;;5031053;28;20379;-86
2023/05/18 04:20:28;;;;;;;;;;;4.50;99.90;;;;;;5035470;28;19909;-86
2023/05/18 04:22:54;;;;;;;;;;;4.50;99.90;;;;;;5024937;28;19935;-86
2023/05/18 04:25:20;;;;;;;;;;;4.60;99.90;;;;;;5026638;28;19909;-88
2023/05/18 04:27:49;;;;;;;;;;;4.70;99.90;;;;;;5038468;28;20242;-86
2023/05/18 04:30:17;;;;;;;;;;;4.80;99.90;;;;;;5037955;28;19909;-86
2023/05/18 04:32:43;;;;;;;;;;;4.90;99.90;;;;;;5031925;28;19909;-86
2023/05/18 04:35:10;;;;;;;;;;;4.90;99.90;;;;;;5026096;28;20049;-86
2023/05/18 04:37:39;;;;;;;;;;;4.90;99.90;;;;;;5035371;28;19914;-86
2023/05/18 04:40:06;;;;;;;;;;;4.90;99.90;;;;;;5030423;28;20336;-86
2023/05/18 04:42:34;;;;;;;;;;;5.00;99.90;;;;;;5026680;28;19979;-86
2023/05/18 04:45:00;;;;;;;;;;;5.10;99.90;;;;;;5021906;28;20000;-86
2023/05/18 04:47:28;;;;;;;;;;;5.10;99.90;;;;;;5036620;28;19917;-86
2023/05/18 04:49:54;;;;;;;;;;;5.10;99.90;;;;;;5022555;28;20009;-86
2023/05/18 04:52:20;;;;;;;;;;;5.20;99.90;;;;;;5037448;28;20376;-86
2023/05/18 04:54:46;;;;;;;;;;;5.20;99.90;;;;;;5023945;28;19955;-86
2023/05/18 04:57:12;;;;;;;;;;;5.20;99.90;;;;;;5030025;28;19913;-86
2023/05/18 04:59:40;;;;;;;;;;;5.20;99.90;;;;;;5033904;28;19932;-86
2023/05/18 05:02:05;;;;;;;;;;;5.30;99.90;;;;;;5035699;28;19897;-86
2023/05/18 05:04:31;;;;;;;;;;;5.30;99.90;;;;;;5035647;28;19909;-86
2023/05/18 05:06:57;;;;;;;;;;;5.40;99.90;;;;;;5016483;28;19909;-86
2023/05/18 05:09:22;;;;;;;;;;;5.50;99.90;;;;;;5016817;28;19909;-87
2023/05/18 05:11:48;;;;;;;;;;;5.50;99.90;;;;;;5042399;28;19917;-86
2023/05/18 05:14:13;;;;;;;;;;;5.50;99.90;;;;;;5035130;28;19909;-86
2023/05/18 05:16:39;;;;;;;;;;;5.50;99.90;;;;;;5033802;28;19918;-87
2023/05/18 05:19:06;;;;;;;;;;;5.60;99.90;;;;;;5021589;28;20371;-86
2023/05/18 05:21:32;;;;;;;;;;;5.60;99.90;;;;;;5027111;28;19909;-86
2023/05/18 05:24:00;;;;;;;;;;;5.60;99.90;;;;;;5035633;28;20370;-86
2023/05/18 05:26:26;;;;;;;;;;;5.70;99.90;;;;;;5027482;28;19945;-87
2023/05/18 05:28:51;;;;;;;;;;;5.80;99.90;;;;;;5034796;28;20471;-87
2023/05/18 05:31:17;;;;;;;;;;;5.90;99.90;;;;;;5037562;28;19959;-86
2023/05/18 05:33:44;;;;;;;;;;;6.00;99.90;;;;;;5033310;28;19916;-86
2023/05/18 05:36:10;;;;;;;;;;;6.00;99.90;;;;;;5035696;28;19909;-86
2023/05/18 05:38:36;;;;;;;;;;;6.10;99.90;;;;;;5034589;28;19920;-86
2023/05/18 05:41:02;;;;;;;;;;;6.20;99.90;;;;;;5031834;28;19910;-86
2023/05/18 05:43:28;;;;;;;;;;;6.20;99.90;;;;;;5041520;28;19909;-86
2023/05/18 05:45:53;;;;;;;;;;;6.30;99.90;;;;;;5048251;28;19909;-87
2023/05/18 05:48:22;;;;;;;;;;;6.40;99.90;;;;;;5018172;28;19936;-86
2023/05/18 05:50:48;;;;;;;;;;;6.50;99.90;;;;;;5039629;28;19984;-86
2023/05/18 05:53:18;;;;;;;;;;;6.50;99.90;;;;;;5019920;28;19917;-86
2023/05/18 05:55:45;;;;;;;;;;;6.60;99.90;;;;;;5033456;28;19949;-86
2023/05/18 05:58:14;;;;;;;;;;;6.70;99.90;;;;;;5022692;28;19971;-86
2023/05/18 06:00:45;;;;;;;;;;;6.70;99.90;;;;;;5024783;28;20526;-86
2023/05/18 06:03:11;;;;;;;;;;;6.80;99.90;;;;;;5023853;28;19909;-86
2023/05/18 06:06:00;;;;;;;;;;;6.90;99.90;;;;;;5034878;28;20258;-86
2023/05/18 06:08:27;;;;;;;;;;;7.00;99.90;;;;;;5031163;28;19913;-87
2023/05/18 06:10:54;;;;;;;;;;;7.10;99.90;;;;;;5018469;28;19935;-86
2023/05/18 06:13:19;;;;;;;;;;;7.20;99.90;;;;;;5028353;28;20353;-87
2023/05/18 06:15:53;;;;;;;;;;;7.30;99.90;;;;;;5024274;28;20328;-86
2023/05/18 06:18:20;;;;;;;;;;;7.40;99.90;;;;;;5018197;28;19967;-86
2023/05/18 06:20:48;;;;;;;;;;;7.40;99.90;;;;;;5033294;28;20335;-87
2023/05/18 06:23:21;;;;;;;;;;;7.50;99.90;;;;;;5034660;28;20357;-86
2023/05/18 06:25:58;;;;;;;;;;;7.70;99.90;;;;;;5031597;28;19910;-86
2023/05/18 06:28:51;;;;;;;;;;;7.80;99.90;;;;;;5006637;28;19910;-85
2023/05/18 06:31:31;;;;;;;;;;;7.90;99.90;;;;;;5027165;28;19909;-86
2023/05/18 06:34:25;;;;;;;;;;;8.10;99.90;;;;;;5016690;28;20284;-84
2023/05/18 06:36:52;;;;;;;;;;;8.10;99.90;;;;;;5031655;28;19956;-87
2023/05/18 06:39:17;;;;;;;;;;;8.20;99.90;;;;;;5026410;28;20372;-86
2023/05/18 06:41:44;;;;;;;;;;;8.30;99.90;;;;;;5025279;28;20357;-85
2023/05/18 06:44:16;;;;;;;;;;;8.30;99.90;;;;;;5037463;28;19992;-86
2023/05/18 06:47:00;;;;;;;;;;;8.40;99.90;;;;;;5023030;28;19909;-86
2023/05/18 06:49:28;;;;;;;;;;;8.40;99.90;;;;;;5033083;28;20016;-85
2023/05/18 06:51:53;;;;;;;;;;;8.50;99.90;;;;;;5030491;28;20666;-87
2023/05/18 06:54:19;;;;;;;;;;;8.60;99.90;;;;;;5027130;28;20016;-86
2023/05/18 06:56:46;;;;;;;;;;;8.80;99.90;;;;;;5022565;28;19952;-87
2023/05/18 06:59:11;;;;;;;;;;;8.90;99.90;;;;;;5023100;28;19916;-87
2023/05/18 07:01:37;;;;;;;;;;;8.90;99.90;;;;;;5049485;28;20299;-87
2023/05/18 07:04:04;;;;;;;;;;;9.00;99.90;;;;;;5034435;28;19925;-86
2023/05/18 07:06:30;;;;;;;;;;;9.00;99.90;;;;;;5048490;28;19909;-84
2023/05/18 07:08:55;;;;;;;;;;;8.90;99.90;;;;;;5061268;28;19920;-86
2023/05/18 07:11:21;;;;;;;;;;;8.90;99.90;;;;;;5042693;28;19893;-86
2023/05/18 07:13:47;;;;;;;;;;;9.10;99.90;;;;;;5036076;28;19915;-85
2023/05/18 07:16:13;;;;;;;;;;;9.20;99.90;;;;;;5052924;28;20004;-85
2023/05/18 07:18:40;;;;;;;;;;;9.20;99.90;;;;;;5029374;28;19932;-85
2023/05/18 07:21:06;;;;;;;;;;;9.20;99.90;;;;;;5034423;28;19909;-85
2023/05/18 07:23:32;;;;;;;;;;;9.30;99.90;;;;;;5019334;28;19970;-86
2023/05/18 07:25:57;;;;;;;;;;;9.40;99.90;;;;;;5041227;28;20428;-86
2023/05/18 07:28:23;;;;;;;;;;;9.40;99.90;;;;;;5024990;28;19931;-86
2023/05/18 07:30:49;;;;;;;;;;;9.50;99.90;;;;;;5033031;28;20283;-86
2023/05/18 07:33:15;;;;;;;;;;;9.50;99.90;;;;;;5043245;28;19909;-86
2023/05/18 07:35:40;;;;;;;;;;;9.70;99.90;;;;;;5041127;28;19932;-86
2023/05/18 07:38:06;;;;;;;;;;;9.80;99.90;;;;;;5026388;28;19913;-86
2023/05/18 07:40:32;;;;;;;;;;;9.80;99.90;;;;;;5028423;28;20353;-85
2023/05/18 07:42:57;;;;;;;;;;;9.90;99.90;;;;;;5042568;28;19909;-86
2023/05/18 07:45:23;;;;;;;;;;;10.00;99.90;;;;;;5042123;28;19996;-85
2023/05/18 07:47:49;;;;;;;;;;;10.10;99.90;;;;;;5022361;28;19956;-86
2023/05/18 07:50:15;;;;;;;;;;;10.70;99.90;;;;;;5024143;28;19909;-85
2023/05/18 07:52:41;;;;;;;;;;;11.90;99.90;;;;;;5029354;28;19913;-86
2023/05/18 07:55:07;;;;;;;;;;;13.20;99.90;;;;;;5021626;28;20435;-86
2023/05/18 07:57:34;;;;;;;;;;;14.20;99.90;;;;;;5040509;28;19948;-85
2023/05/18 08:00:00;;;;;;;;;;;14.90;99.90;;;;;;5028183;28;19909;-85
2023/05/18 08:02:26;;;;;;;;;;;14.50;99.90;;;;;;5023254;28;20332;-85
2023/05/18 08:04:52;;;;;;;;;;;14.60;99.90;;;;;;5042235;28;19964;-85
2023/05/18 08:07:17;;;;;;;;;;;14.60;99.90;;;;;;5031955;28;19970;-85
2023/05/18 08:09:43;;;;;;;;;;;15.50;99.90;;;;;;5044268;28;19909;-86
2023/05/18 08:12:09;;;;;;;;;;;16.20;98.80;;;;;;5047783;28;20240;-83
2023/05/18 08:14:35;;;;;;;;;;;16.60;98.50;;;;;;5044591;28;19951;-85
2023/05/18 08:17:02;;;;;;;;;;;17.40;94.60;;;;;;5012983;28;19917;-86
2023/05/18 08:19:27;;;;;;;;;;;17.90;92.80;;;;;;5037538;28;20261;-86
2023/05/18 08:21:53;;;;;;;;;;;18.10;92.50;;;;;;5024193;28;19909;-85
2023/05/18 08:24:18;;;;;;;;;;;17.70;91.70;;;;;;5015694;28;19917;-86
2023/05/18 08:26:44;;;;;;;;;;;17.80;90.30;;;;;;5032801;28;19913;-86
2023/05/18 08:29:10;;;;;;;;;;;17.70;89.70;;;;;;5015779;28;20365;-86
2023/05/18 08:31:36;;;;;;;;;;;17.70;89.70;;;;;;5020007;28;19959;-86
2023/05/18 08:34:28;;;;;;;;;;;17.40;87.00;;;;;;5014007;28;20269;-86
2023/05/18 08:36:54;;;;;;;;;;;17.60;90.00;;;;;;5037621;28;19913;-86
2023/05/18 08:39:32;;;;;;;;;;;18.10;86.60;;;;;;5037528;28;19960;-86
2023/05/18 08:42:02;;;;;;;;;;;17.40;86.70;;;;;;5022338;28;19918;-86
2023/05/18 08:44:48;;;;;;;;;;;17.80;89.10;;;;;;5021236;28;19984;-86
2023/05/18 08:47:27;;;;;;;;;;;18.20;85.70;;;;;;5023112;28;19944;-86
2023/05/18 08:49:54;;;;;;;;;;;18.00;83.70;;;;;;5032565;28;19909;-85
2023/05/18 08:52:23;;;;;;;;;;;18.20;83.50;;;;;;5044640;28;19905;-85
2023/05/18 08:54:50;;;;;;;;;;;18.50;82.20;;;;;;5025445;28;20134;-86
2023/05/18 08:57:17;;;;;;;;;;;17.90;81.80;;;;;;5044733;28;19913;-85
2023/05/18 08:59:45;;;;;;;;;;;18.20;81.40;;;;;;5017677;28;19908;-86
2023/05/18 09:02:11;;;;;;;;;;;18.80;81.70;;;;;;5029870;28;19918;-86
2023/05/18 09:04:37;;;;;;;;;;;19.00;79.40;;;;;;5021820;28;19905;-86
2023/05/18 09:07:04;;;;;;;;;;;19.60;80.60;;;;;;5037370;28;19913;-86
2023/05/18 09:10:04;;;;;;;;;;;19.60;77.60;;;;;;5020810;28;19996;-85
2023/05/18 09:12:31;;;;;;;;;;;19.20;76.60;;;;;;5032220;28;19913;-85
2023/05/18 09:14:57;;;;;;;;;;;19.50;75.20;;;;;;5049014;28;19913;-87
2023/05/18 09:17:23;;;;;;;;;;;19.60;73.20;;;;;;5022388;28;19912;-86
2023/05/18 09:19:48;;;;;;;;;;;19.70;74.70;;;;;;5019969;28;19909;-85
2023/05/18 09:22:14;;;;;;;;;;;19.90;71.20;;;;;;5023268;28;19909;-86
2023/05/18 09:24:40;;;;;;;;;;;19.40;72.80;;;;;;5038081;28;19914;-86
2023/05/18 09:27:06;;;;;;;;;;;19.70;73.90;;;;;;5035489;28;19975;-86
2023/05/18 09:29:31;;;;;;;;;;;20.10;70.70;;;;;;5028553;28;19913;-86
2023/05/18 09:32:00;;;;;;;;;;;19.30;68.30;;;;;;5033830;28;20280;-86
2023/05/18 09:34:37;;;;;;;;;;;19.20;71.50;;;;;;5039637;28;19909;-85
2023/05/18 09:40:32;;;;;;;;;;;17.70;74.30;;;;;;5036508;28;19972;-86
2023/05/18 09:42:57;;;;;;;;;;;17.60;74.60;;;;;;5026416;28;20018;-86
2023/05/18 09:45:24;;;;;;;;;;;18.20;74.90;;;;;;5031893;28;19963;-85
2023/05/18 09:47:50;;;;;;;;;;;18.20;73.80;;;;;;5029586;28;19913;-86
2023/05/18 09:50:19;;;;;;;;;;;18.10;73.60;;;;;;5019472;28;19920;-85
2023/05/18 09:52:46;;;;;;;;;;;17.90;76.10;;;;;;5024519;28;19913;-84
2023/05/18 09:55:14;;;;;;;;;;;16.60;76.50;;;;;;5012891;28;19905;-85
2023/05/18 09:57:41;;;;;;;;;;;15.80;81.90;;;;;;5039472;28;19917;-86
2023/05/18 10:00:09;;;;;;;;;;;15.40;81.20;;;;;;5032175;28;19909;-85
2023/05/18 10:03:02;;;;;;;;;;;15.80;79.70;;;;;;5050248;28;19940;-85
2023/05/18 10:05:32;;;;;;;;;;;15.80;77.00;;;;;;5026145;28;20383;-85
2023/05/18 10:07:58;;;;;;;;;;;15.60;79.00;;;;;;5030264;28;19962;-83
2023/05/18 10:10:25;;;;;;;;;;;15.70;80.00;;;;;;5030964;28;20341;-85
2023/05/18 10:12:52;;;;;;;;;;;15.60;82.10;;;;;;5038418;28;19897;-85
2023/05/18 10:15:19;;;;;;;;;;;15.40;83.70;;;;;;5047362;28;20002;-85
2023/05/18 10:17:49;;;;;;;;;;;15.20;87.60;;;;;;5044267;28;20411;-85
2023/05/18 10:20:19;;;;;;;;;;;15.70;87.20;;;;;;5006009;28;19988;-85
2023/05/18 10:22:46;;;;;;;;;;;16.10;86.10;;;;;;5023742;28;19909;-85
2023/05/18 10:25:15;;;;;;;;;;;16.20;85.60;;;;;;5042187;28;19936;-86
2023/05/18 10:27:42;;;;;;;;;;;16.60;87.70;;;;;;5022499;28;19920;-86
2023/05/18 10:30:08;;;;;;;;;;;16.80;86.90;;;;;;5031495;28;19963;-85
2023/05/18 10:32:34;;;;;;;;;;;17.40;85.60;;;;;;5033370;28;19905;-85
2023/05/18 10:35:01;;;;;;;;;;;18.00;80.90;;;;;;5043058;28;19913;-86
2023/05/18 10:37:29;;;;;;;;;;;18.10;81.00;;;;;;5031511;28;19913;-86
2023/05/18 10:39:55;;;;;;;;;;;18.20;79.60;;;;;;5040475;28;19913;-86
2023/05/18 10:42:21;;;;;;;;;;;18.50;75.80;;;;;;5028069;28;20634;-86
2023/05/18 10:44:46;;;;;;;;;;;18.80;75.50;;;;;;5030486;28;19915;-86
2023/05/18 10:47:13;;;;;;;;;;;17.80;76.30;;;;;;5030712;28;19960;-86
2023/05/18 10:49:39;;;;;;;;;;;17.60;77.70;;;;;;5039059;28;19958;-86
2023/05/18 10:52:05;;;;;;;;;;;18.10;79.30;;;;;;5021446;28;19921;-86
2023/05/18 10:54:32;;;;;;;;;;;18.40;79.10;;;;;;5014163;28;19914;-86
2023/05/18 10:57:17;;;;;;;;;;;19.40;75.90;;;;;;5008815;28;20273;-86
2023/05/18 11:03:17;;;;;;;;;;;19.10;72.70;;;;;;5033620;28;19963;-86
2023/05/18 11:05:43;;;;;;;;;;;18.40;74.20;;;;;;5014543;28;20276;-86
2023/05/18 11:08:09;;;;;;;;;;;18.70;77.70;;;;;;5031435;28;19940;-86
2023/05/18 11:10:34;;;;;;;;;;;18.50;74.00;;;;;;5049883;28;19905;-86
2023/05/18 11:13:01;;;;;;;;;;;17.40;76.10;;;;;;5041933;28;19914;-86
2023/05/18 11:16:03;;;;;;;;;;;17.40;76.00;;;;;;5030181;28;19913;-86
2023/05/18 11:18:36;;;;;;;;;;;17.70;78.10;;;;;;4962671;28;19922;-86
2023/05/18 11:21:21;;;;;;;;;;;17.70;76.90;;;;;;4956711;28;19900;-86
2023/05/18 11:24:05;;;;;;;;;;;17.00;76.20;;;;;;4960059;28;19921;-86
2023/05/18 11:29:59;;;;;;;;;;;16.80;79.10;;;;;;4972230;28;20420;-86
2023/05/18 11:32:31;;;;;;;;;;;18.10;74.90;;;;;;4970162;28;19957;-85
2023/05/18 11:34:57;;;;;;;;;;;18.40;73.60;;;;;;5037802;28;19909;-85
2023/05/18 11:37:38;;;;;;;;;;;17.20;74.80;;;;;;5021157;28;20007;-86
2023/05/18 11:40:04;;;;;;;;;;;17.40;80.00;;;;;;5031180;28;19920;-85
2023/05/18 11:42:33;;;;;;;;;;;17.80;77.50;;;;;;5042275;28;19909;-86
2023/05/18 11:45:09;;;;;;;;;;;18.10;79.10;;;;;;5030358;28;19947;-86
2023/05/18 11:47:35;;;;;;;;;;;18.70;74.60;;;;;;5022523;28;19986;-86
2023/05/18 11:50:01;;;;;;;;;;;19.10;74.70;;;;;;5031115;28;19944;-86
2023/05/18 11:55:37;;;;;;;;;;;19.00;74.40;;;;;;5021300;28;19920;-86
2023/05/18 11:58:06;;;;;;;;;;;19.20;79.40;;;;;;5025305;28;19922;-86
2023/05/18 12:00:32;;;;;;;;;;;19.30;75.40;;;;;;5024563;28;19912;-85
2023/05/18 12:02:59;;;;;;;;;;;19.20;75.50;;;;;;5039851;28;19913;-86
2023/05/18 12:05:29;;;;;;;;;;;18.70;78.10;;;;;;5022666;28;19909;-87
2023/05/18 12:07:54;;;;;;;;;;;18.40;74.40;;;;;;5045783;28;19954;-86
2023/05/18 12:10:21;;;;;;;;;;;17.80;76.00;;;;;;5029072;28;19913;-86
2023/05/18 12:12:47;;;;;;;;;;;17.60;76.60;;;;;;5025180;28;19905;-86
2023/05/18 12:15:13;;;;;;;;;;;17.60;75.00;;;;;;5044891;28;19910;-86
2023/05/18 12:17:41;;;;;;;;;;;17.80;79.00;;;;;;5024450;28;19928;-86
2023/05/18 12:20:08;;;;;;;;;;;18.00;74.00;;;;;;5029321;28;19916;-86
2023/05/18 12:22:33;;;;;;;;;;;18.30;73.70;;;;;;5045330;28;19936;-86
2023/05/18 12:24:59;;;;;;;;;;;18.80;71.30;;;;;;5027087;28;19917;-86
2023/05/18 12:27:25;;;;;;;;;;;19.10;74.80;;;;;;5046619;28;19909;-86
2023/05/18 12:29:51;;;;;;;;;;;19.10;75.40;;;;;;5041238;28;20328;-86
2023/05/18 12:32:18;;;;;;;;;;;19.10;70.90;;;;;;5038612;28;19917;-86
2023/05/18 12:34:43;;;;;;;;;;;19.00;71.20;;;;;;5037268;28;20262;-85
2023/05/18 12:37:09;;;;;;;;;;;19.20;71.30;;;;;;5006251;28;19928;-85
2023/05/18 12:39:36;;;;;;;;;;;19.20;69.60;;;;;;5029194;28;19955;-86
2023/05/18 12:42:09;;;;;;;;;;;19.30;70.40;;;;;;5039217;28;20361;-86
2023/05/18 12:44:35;;;;;;;;;;;20.00;70.60;;;;;;5013156;28;19959;-86
2023/05/18 12:47:00;;;;;;;;;;;20.00;68.20;;;;;;5021851;28;20297;-86
2023/05/18 12:49:26;;;;;;;;;;;19.60;68.90;;;;;;5021744;28;19967;-87
2023/05/18 12:51:54;;;;;;;;;;;18.70;71.30;;;;;;5026417;28;19909;-86
2023/05/18 12:54:26;;;;;;;;;;;18.10;69.90;;;;;;5042238;28;19921;-86
2023/05/18 12:56:58;;;;;;;;;;;18.30;72.30;;;;;;5029440;28;20333;-86
2023/05/18 12:59:24;;;;;;;;;;;18.80;69.40;;;;;;5035447;28;19916;-86
2023/05/18 13:01:50;;;;;;;;;;;19.40;66.80;;;;;;5048302;28;19964;-86
2023/05/18 13:04:15;;;;;;;;;;;19.60;68.70;;;;;;5035032;28;20311;-86
2023/05/18 13:06:41;;;;;;;;;;;20.00;69.80;;;;;;5035308;28;19948;-87
2023/05/18 13:09:07;;;;;;;;;;;20.50;66.60;;;;;;5019002;28;19913;-86
2023/05/18 13:11:33;;;;;;;;;;;20.50;64.90;;;;;;5020477;28;20276;-86
2023/05/18 13:14:03;;;;;;;;;;;19.40;67.80;;;;;;5048813;28;19935;-86
2023/05/18 13:16:29;;;;;;;;;;;19.20;68.50;;;;;;5018787;28;19909;-86
2023/05/18 13:19:05;;;;;;;;;;;19.00;70.10;;;;;;5031797;28;19912;-86
2023/05/18 13:21:31;;;;;;;;;;;19.60;68.80;;;;;;5026886;28;20091;-87
2023/05/18 13:23:57;;;;;;;;;;;20.40;66.50;;;;;;5020546;28;20352;-86
2023/05/18 13:26:23;;;;;;;;;;;20.70;66.70;;;;;;5029964;28;20000;-87
2023/05/18 13:28:53;;;;;;;;;;;20.90;66.40;;;;;;5043646;28;19914;-87
2023/05/18 13:34:47;;;;;;;;;;;20.40;66.80;;;;;;5022271;28;19985;-86
2023/05/18 13:37:12;;;;;;;;;;;21.20;65.90;;;;;;5011144;28;19921;-86
2023/05/18 13:39:38;;;;;;;;;;;21.20;63.30;;;;;;5043536;28;19910;-87
2023/05/18 13:42:22;;;;;;;;;;;21.30;63.60;;;;;;5034700;28;19943;-86
2023/05/18 13:44:47;;;;;;;;;;;21.70;62.40;;;;;;5038938;28;19909;-87
2023/05/18 13:47:13;;;;;;;;;;;21.30;64.10;;;;;;5029567;28;19909;-87
2023/05/18 13:49:38;;;;;;;;;;;21.10;64.20;;;;;;5026308;28;20206;-87
2023/05/18 13:52:04;;;;;;;;;;;21.10;64.40;;;;;;5043181;28;19955;-86
2023/05/18 13:54:30;;;;;;;;;;;20.90;63.80;;;;;;5016131;28;19917;-87
2023/05/18 13:56:55;;;;;;;;;;;20.70;64.50;;;;;;5035572;28;19913;-87
2023/05/18 13:59:21;;;;;;;;;;;20.80;64.00;;;;;;5020068;28;19909;-86
2023/05/18 14:01:46;;;;;;;;;;;20.30;65.90;;;;;;5046851;28;19917;-87
2023/05/18 14:04:12;;;;;;;;;;;20.90;67.10;;;;;;5026495;28;20424;-85
2023/05/18 14:06:38;;;;;;;;;;;20.10;68.20;;;;;;5031327;28;19917;-86
2023/05/18 14:09:04;;;;;;;;;;;20.20;68.40;;;;;;5032329;28;19921;-86
2023/05/18 14:11:33;;;;;;;;;;;20.80;66.60;;;;;;5024848;28;19999;-87
2023/05/18 14:13:59;;;;;;;;;;;20.50;63.60;;;;;;5023629;28;19913;-86
2023/05/18 14:16:24;;;;;;;;;;;19.70;65.90;;;;;;5015290;28;19909;-86
2023/05/18 14:18:50;;;;;;;;;;;18.90;68.10;;;;;;5021610;28;19913;-86
2023/05/18 14:21:24;;;;;;;;;;;18.00;70.90;;;;;;5028055;28;19909;-85
2023/05/18 14:23:49;;;;;;;;;;;17.20;70.30;;;;;;5039969;28;20246;-86
2023/05/18 14:26:16;;;;;;;;;;;17.40;70.60;;;;;;5048910;28;19915;-85
2023/05/18 14:29:19;;;;;;;;;;;18.00;71.40;;;;;;5016114;28;19909;-86
2023/05/18 14:31:45;;;;;;;;;;;18.10;71.80;;;;;;5018573;28;19916;-86
2023/05/18 14:34:13;;;;;;;;;;;18.00;72.70;;;;;;5032741;28;20428;-85
2023/05/18 14:36:39;;;;;;;;;;;17.40;73.10;;;;;;5022794;28;20004;-85
2023/05/18 14:39:05;;;;;;;;;;;16.70;75.10;;;;;;5033474;28;20047;-86
2023/05/18 14:41:46;;;;;;;;;;;16.70;77.90;;;;;;5035272;28;19905;-86
2023/05/18 14:47:28;;;;;;;;;;;16.90;72.80;;;;;;5020489;28;19913;-86
2023/05/18 14:49:53;;;;;;;;;;;17.00;75.00;;;;;;5024482;28;19909;-85